sensor_id;sensor_type;location;lat;lon;timestamp;pressure;altitude;pressure_sealevel;temperature;humidity
73240;BME280;61452;40.054;4.110;2024-03-17T00:01:19;102551.88;;;16.12;100.00
73240;BME280;61452;40.054;4.110;2024-03-17T00:06:20;102539.66;;;16.10;100.00
73240;BME280;61452;40.054;4.110;2024-03-17T00:11:22;102548.38;;;16.12;100.00
73240;BME280;61452;40.054;4.110;2024-03-17T00:16:23;102551.78;;;16.15;100.00
73240;BME280;61452;40.054;4.110;2024-03-17T00:21:24;102549.03;;;16.17;100.00
73240;BME280;61452;40.054;4.110;2024-03-17T00:26:27;102535.03;;;16.15;100.00
73240;BME280;61452;40.054;4.110;2024-03-17T00:31:31;102517.47;;;16.12;100.00
73240;BME280;61452;40.054;4.110;2024-03-17T00:36:32;102516.56;;;16.13;100.00
73240;BME280;61452;40.054;4.110;2024-03-17T00:41:34;102511.13;;;16.16;100.00
73240;BME280;61452;40.054;4.110;2024-03-17T00:46:35;102509.47;;;16.14;100.00
73240;BME280;61452;40.054;4.110;2024-03-17T00:51:36;102509.41;;;16.15;100.00
73240;BME280;61452;40.054;4.110;2024-03-17T00:56:37;102504.25;;;16.12;100.00
73240;BME280;61452;40.054;4.110;2024-03-17T01:01:38;102495.44;;;16.12;100.00
73240;BME280;61452;40.054;4.110;2024-03-17T01:06:40;102499.88;;;16.11;100.00
73240;BME280;61452;40.054;4.110;2024-03-17T01:11:41;102498.03;;;16.13;100.00
73240;BME280;61452;40.054;4.110;2024-03-17T01:16:42;102482.19;;;16.12;100.00
73240;BME280;61452;40.054;4.110;2024-03-17T01:21:43;102492.88;;;16.10;100.00
73240;BME280;61452;40.054;4.110;2024-03-17T01:26:44;102483.91;;;16.13;100.00
73240;BME280;61452;40.054;4.110;2024-03-17T01:31:46;102481.34;;;16.11;100.00
73240;BME280;61452;40.054;4.110;2024-03-17T01:36:47;102466.41;;;16.10;100.00
73240;BME280;61452;40.054;4.110;2024-03-17T01:41:48;102454.00;;;16.11;100.00
73240;BME280;61452;40.054;4.110;2024-03-17T01:46:50;102443.41;;;16.11;100.00
73240;BME280;61452;40.054;4.110;2024-03-17T01:51:52;102435.47;;;16.11;100.00
73240;BME280;61452;40.054;4.110;2024-03-17T01:56:54;102431.84;;;16.13;100.00
73240;BME280;61452;40.054;4.110;2024-03-17T02:01:56;102444.97;;;16.16;100.00
73240;BME280;61452;40.054;4.110;2024-03-17T02:06:57;102442.44;;;16.13;100.00
73240;BME280;61452;40.054;4.110;2024-03-17T02:11:59;102432.75;;;16.12;100.00
73240;BME280;61452;40.054;4.110;2024-03-17T02:17:00;102427.47;;;16.12;100.00
73240;BME280;61452;40.054;4.110;2024-03-17T02:22:01;102422.25;;;16.11;100.00
73240;BME280;61452;40.054;4.110;2024-03-17T02:27:02;102416.94;;;16.11;100.00
73240;BME280;61452;40.054;4.110;2024-03-17T02:32:03;102409.00;;;16.11;100.00
73240;BME280;61452;40.054;4.110;2024-03-17T02:37:10;102407.31;;;16.10;100.00
73240;BME280;61452;40.054;4.110;2024-03-17T02:42:12;102406.44;;;16.09;100.00
73240;BME280;61452;40.054;4.110;2024-03-17T02:47:13;102401.91;;;16.11;100.00
73240;BME280;61452;40.054;4.110;2024-03-17T02:52:15;102393.06;;;16.12;100.00
73240;BME280;61452;40.054;4.110;2024-03-17T02:57:16;102380.75;;;16.11;100.00
73240;BME280;61452;40.054;4.110;2024-03-17T03:02:18;102386.03;;;16.11;100.00
73240;BME280;61452;40.054;4.110;2024-03-17T03:07:19;102367.59;;;16.10;100.00
73240;BME280;61452;40.054;4.110;2024-03-17T03:12:20;102357.00;;;16.10;100.00
73240;BME280;61452;40.054;4.110;2024-03-17T03:17:21;102359.66;;;16.10;100.00
73240;BME280;61452;40.054;4.110;2024-03-17T03:22:22;102362.31;;;16.10;100.00
73240;BME280;61452;40.054;4.110;2024-03-17T03:27:23;102367.59;;;16.10;100.00
73240;BME280;61452;40.054;4.110;2024-03-17T03:32:25;102378.03;;;16.13;100.00
73240;BME280;61452;40.054;4.110;2024-03-17T03:37:26;102370.94;;;16.13;100.00
73240;BME280;61452;40.054;4.110;2024-03-17T03:42:27;102368.31;;;16.13;100.00
73240;BME280;61452;40.054;4.110;2024-03-17T03:47:28;102366.66;;;16.11;100.00
73240;BME280;61452;40.054;4.110;2024-03-17T03:52:29;102364.09;;;16.09;100.00
73240;BME280;61452;40.054;4.110;2024-03-17T03:57:31;102357.94;;;16.09;100.00
73240;BME280;61452;40.054;4.110;2024-03-17T04:02:32;102344.69;;;16.09;100.00
73240;BME280;61452;40.054;4.110;2024-03-17T04:07:36;102357.94;;;16.09;100.00
73240;BME280;61452;40.054;4.110;2024-03-17T04:12:37;102363.06;;;16.12;100.00
73240;BME280;61452;40.054;4.110;2024-03-17T04:17:38;102357.72;;;16.13;100.00
73240;BME280;61452;40.054;4.110;2024-03-17T04:22:40;102352.50;;;16.12;100.00
73240;BME280;61452;40.054;4.110;2024-03-17T04:27:43;102350.84;;;16.09;100.00
73240;BME280;61452;40.054;4.110;2024-03-17T04:32:44;102359.72;;;16.08;100.00
73240;BME280;61452;40.054;4.110;2024-03-17T04:37:46;102357.78;;;16.12;100.00
73240;BME280;61452;40.054;4.110;2024-03-17T04:42:47;102365.72;;;16.12;100.00
73240;BME280;61452;40.054;4.110;2024-03-17T04:47:48;102372.81;;;16.11;100.00
73240;BME280;61452;40.054;4.110;2024-03-17T04:52:50;102377.34;;;16.09;100.00
73240;BME280;61452;40.054;4.110;2024-03-17T04:57:51;102383.53;;;16.08;100.00
73240;BME280;61452;40.054;4.110;2024-03-17T05:02:52;102379.97;;;16.09;100.00
73240;BME280;61452;40.054;4.110;2024-03-17T05:07:54;102377.47;;;16.06;100.00
73240;BME280;61452;40.054;4.110;2024-03-17T05:12:56;102376.47;;;16.09;100.00
73240;BME280;61452;40.054;4.110;2024-03-17T05:17:57;102364.97;;;16.10;100.00
73240;BME280;61452;40.054;4.110;2024-03-17T05:22:58;102381.69;;;16.10;100.00
73240;BME280;61452;40.054;4.110;2024-03-17T05:27:59;102381.75;;;16.09;100.00
73240;BME280;61452;40.054;4.110;2024-03-17T05:33:00;102378.31;;;16.07;100.00
73240;BME280;61452;40.054;4.110;2024-03-17T05:38:01;102383.63;;;16.07;100.00
73240;BME280;61452;40.054;4.110;2024-03-17T05:43:03;102385.34;;;16.08;100.00
73240;BME280;61452;40.054;4.110;2024-03-17T05:48:04;102378.25;;;16.08;100.00
73240;BME280;61452;40.054;4.110;2024-03-17T05:53:06;102380.91;;;16.08;100.00
73240;BME280;61452;40.054;4.110;2024-03-17T05:58:07;102387.00;;;16.10;100.00
73240;BME280;61452;40.054;4.110;2024-03-17T06:03:12;102386.13;;;16.10;100.00
73240;BME280;61452;40.054;4.110;2024-03-17T06:08:14;102376.59;;;16.06;100.00
73240;BME280;61452;40.054;4.110;2024-03-17T06:13:16;102393.34;;;16.06;100.00
73240;BME280;61452;40.054;4.110;2024-03-17T06:18:19;102401.44;;;16.03;100.00
73240;BME280;61452;40.054;4.110;2024-03-17T06:23:21;102407.44;;;16.07;100.00
73240;BME280;61452;40.054;4.110;2024-03-17T06:28:22;102410.16;;;16.05;100.00
73240;BME280;61452;40.054;4.110;2024-03-17T06:33:24;102425.09;;;16.06;100.00
73240;BME280;61452;40.054;4.110;2024-03-17T06:38:25;102424.25;;;16.06;100.00
73240;BME280;61452;40.054;4.110;2024-03-17T06:43:26;102415.38;;;16.07;100.00
73240;BME280;61452;40.054;4.110;2024-03-17T06:48:28;102399.50;;;16.07;100.00
73240;BME280;61452;40.054;4.110;2024-03-17T06:53:29;102396.03;;;16.05;100.00
73240;BME280;61452;40.054;4.110;2024-03-17T06:58:31;102403.16;;;16.04;100.00
73240;BME280;61452;40.054;4.110;2024-03-17T07:03:32;102390.84;;;16.03;100.00
73240;BME280;61452;40.054;4.110;2024-03-17T07:08:33;102397.94;;;16.03;100.00
73240;BME280;61452;40.054;4.110;2024-03-17T07:13:38;102397.78;;;16.06;100.00
73240;BME280;61452;40.054;4.110;2024-03-17T07:18:42;102403.16;;;16.04;100.00
73240;BME280;61452;40.054;4.110;2024-03-17T07:23:44;102413.66;;;16.06;100.00
73240;BME280;61452;40.054;4.110;2024-03-17T07:28:45;102410.16;;;16.05;100.00
73240;BME280;61452;40.054;4.110;2024-03-17T07:33:47;102412.78;;;16.05;100.00
73240;BME280;61452;40.054;4.110;2024-03-17T07:38:48;102398.78;;;16.03;100.00
73240;BME280;61452;40.054;4.110;2024-03-17T07:43:50;102407.59;;;16.04;100.00
73240;BME280;61452;40.054;4.110;2024-03-17T07:48:51;102406.84;;;16.00;100.00
73240;BME280;61452;40.054;4.110;2024-03-17T07:53:52;102405.81;;;16.04;100.00
73240;BME280;61452;40.054;4.110;2024-03-17T07:58:53;102428.75;;;16.04;100.00
73240;BME280;61452;40.054;4.110;2024-03-17T08:03:54;102431.31;;;16.05;100.00
73240;BME280;61452;40.054;4.110;2024-03-17T08:08:56;102434.75;;;16.07;100.00
73240;BME280;61452;40.054;4.110;2024-03-17T08:13:58;102445.34;;;16.07;100.00
73240;BME280;61452;40.054;4.110;2024-03-17T08:18:59;102451.56;;;16.06;100.00
73240;BME280;61452;40.054;4.110;2024-03-17T08:24:00;102452.50;;;16.05;100.00
73240;BME280;61452;40.054;4.110;2024-03-17T08:29:01;102456.09;;;16.04;100.00
73240;BME280;61452;40.054;4.110;2024-03-17T08:34:02;102456.09;;;16.04;100.00
73240;BME280;61452;40.054;4.110;2024-03-17T08:39:03;102458.81;;;16.03;100.00
73240;BME280;61452;40.054;4.110;2024-03-17T08:44:04;102451.72;;;16.03;100.00
73240;BME280;61452;40.054;4.110;2024-03-17T08:49:07;102460.53;;;16.04;100.00
73240;BME280;61452;40.054;4.110;2024-03-17T08:54:08;102455.28;;;16.02;100.00
73240;BME280;61452;40.054;4.110;2024-03-17T08:59:09;102458.81;;;16.03;100.00
73240;BME280;61452;40.054;4.110;2024-03-17T09:04:13;102444.72;;;16.02;100.00
73240;BME280;61452;40.054;4.110;2024-03-17T09:09:14;102448.16;;;16.04;100.00
73240;BME280;61452;40.054;4.110;2024-03-17T09:14:15;102442.75;;;16.06;100.00
73240;BME280;61452;40.054;4.110;2024-03-17T09:19:16;102433.03;;;16.06;100.00
73240;BME280;61452;40.054;4.110;2024-03-17T09:24:17;102435.69;;;16.06;100.00
73240;BME280;61452;40.054;4.110;2024-03-17T09:29:18;102428.66;;;16.05;100.00
73240;BME280;61452;40.054;4.110;2024-03-17T09:34:20;102430.56;;;16.03;100.00
73240;BME280;61452;40.054;4.110;2024-03-17T09:39:21;102432.28;;;16.04;100.00
73240;BME280;61452;40.054;4.110;2024-03-17T09:44:25;102425.25;;;16.03;100.00
73240;BME280;61452;40.054;4.110;2024-03-17T09:49:27;102427.91;;;16.03;100.00
73240;BME280;61452;40.054;4.110;2024-03-17T09:54:30;102433.09;;;16.05;100.00
73240;BME280;61452;40.054;4.110;2024-03-17T09:59:31;102440.97;;;16.06;100.00
73240;BME280;61452;40.054;4.110;2024-03-17T10:04:32;102441.91;;;16.05;100.00
73240;BME280;61452;40.054;4.110;2024-03-17T10:09:36;102434.81;;;16.06;100.00
73240;BME280;61452;40.054;4.110;2024-03-17T10:14:37;102437.63;;;16.03;100.00
73240;BME280;61452;40.054;4.110;2024-03-17T10:19:38;102429.53;;;16.06;100.00
73240;BME280;61452;40.054;4.110;2024-03-17T10:24:40;102426.19;;;16.02;100.00
73240;BME280;61452;40.054;4.110;2024-03-17T10:29:43;102433.09;;;16.05;100.00
73240;BME280;61452;40.054;4.110;2024-03-17T10:34:45;102433.84;;;16.08;100.00
73240;BME280;61452;40.054;4.110;2024-03-17T10:39:46;102422.34;;;16.09;100.00
73240;BME280;61452;40.054;4.110;2024-03-17T10:44:51;102412.66;;;16.08;100.00
73240;BME280;61452;40.054;4.110;2024-03-17T10:49:54;102402.06;;;16.08;100.00
73240;BME280;61452;40.054;4.110;2024-03-17T10:54:55;102403.00;;;16.07;100.00
73240;BME280;61452;40.054;4.110;2024-03-17T10:59:57;102406.50;;;16.08;100.00
73240;BME280;61452;40.054;4.110;2024-03-17T11:10:36;102410.94;;;16.07;100.00
73240;BME280;61452;40.054;4.110;2024-03-17T11:15:40;102411.75;;;16.09;100.00
73240;BME280;61452;40.054;4.110;2024-03-17T11:20:44;102424.06;;;16.10;100.00
73240;BME280;61452;40.054;4.110;2024-03-17T11:25:57;102415.09;;;16.13;100.00
73240;BME280;61452;40.054;4.110;2024-03-17T11:30:59;102414.22;;;16.12;100.00
73240;BME280;61452;40.054;4.110;2024-03-17T11:41:39;102415.31;;;16.08;100.00
73240;BME280;61452;40.054;4.110;2024-03-17T11:47:04;102419.53;;;16.12;100.00
73240;BME280;61452;40.054;4.110;2024-03-17T11:52:15;102419.47;;;16.14;100.00
73240;BME280;61452;40.054;4.110;2024-03-17T11:57:22;102419.47;;;16.14;100.00
73240;BME280;61452;40.054;4.110;2024-03-17T12:02:29;102409.00;;;16.11;100.00
73240;BME280;61452;40.054;4.110;2024-03-17T12:07:31;102399.28;;;16.11;100.00
73240;BME280;61452;40.054;4.110;2024-03-17T12:12:32;102393.84;;;16.14;100.00
73240;BME280;61452;40.054;4.110;2024-03-17T12:17:36;102387.69;;;16.14;100.00
73240;BME280;61452;40.054;4.110;2024-03-17T12:22:37;102382.41;;;16.14;100.00
73240;BME280;61452;40.054;4.110;2024-03-17T12:27:44;102378.91;;;16.13;100.00
73240;BME280;61452;40.054;4.110;2024-03-17T12:32:46;102377.03;;;16.15;100.00
73240;BME280;61452;40.054;4.110;2024-03-17T12:37:48;102371.66;;;16.17;100.00
73240;BME280;61452;40.054;4.110;2024-03-17T12:42:50;102363.66;;;16.18;100.00
73240;BME280;61452;40.054;4.110;2024-03-17T12:47:51;102351.34;;;16.17;100.00
73240;BME280;61452;40.054;4.110;2024-03-17T12:52:54;102337.34;;;16.15;100.00
73240;BME280;61452;40.054;4.110;2024-03-17T13:03:25;102322.31;;;16.16;100.00
73240;BME280;61452;40.054;4.110;2024-03-17T13:08:27;102312.59;;;16.16;100.00
73240;BME280;61452;40.054;4.110;2024-03-17T13:13:28;102308.06;;;16.18;100.00
73240;BME280;61452;40.054;4.110;2024-03-17T13:18:29;102301.03;;;16.17;100.00
73240;BME280;61452;40.054;4.110;2024-03-17T13:23:31;102312.50;;;16.18;100.00
73240;BME280;61452;40.054;4.110;2024-03-17T13:28:32;102309.78;;;16.19;100.00
73240;BME280;61452;40.054;4.110;2024-03-17T13:33:33;102292.97;;;16.21;100.00
73240;BME280;61452;40.054;4.110;2024-03-17T13:38:34;102290.31;;;16.21;100.00
73240;BME280;61452;40.054;4.110;2024-03-17T13:43:36;102273.50;;;16.22;100.00
73240;BME280;61452;40.054;4.110;2024-03-17T13:48:37;102263.78;;;16.22;100.00
73240;BME280;61452;40.054;4.110;2024-03-17T13:53:38;102267.34;;;16.21;100.00
73240;BME280;61452;40.054;4.110;2024-03-17T13:58:39;102272.59;;;16.23;100.00
73240;BME280;61452;40.054;4.110;2024-03-17T14:03:40;102277.94;;;16.21;100.00
73240;BME280;61452;40.054;4.110;2024-03-17T14:08:43;102281.28;;;16.25;100.00
73240;BME280;61452;40.054;4.110;2024-03-17T14:13:44;102265.34;;;16.26;100.00
73240;BME280;61452;40.054;4.110;2024-03-17T14:18:45;102266.19;;;16.27;100.00
73240;BME280;61452;40.054;4.110;2024-03-17T14:23:46;102250.38;;;16.25;100.00
73240;BME280;61452;40.054;4.110;2024-03-17T14:28:49;102251.22;;;16.26;100.00
73240;BME280;61452;40.054;4.110;2024-03-17T14:33:55;102247.03;;;16.22;100.00
73240;BME280;61452;40.054;4.110;2024-03-17T14:38:56;102244.16;;;16.26;100.00
73240;BME280;61452;40.054;4.110;2024-03-17T14:43:57;102238.06;;;16.24;100.00
73240;BME280;61452;40.054;4.110;2024-03-17T14:48:59;102235.41;;;16.24;100.00
73240;BME280;61452;40.054;4.110;2024-03-17T14:54:00;102229.25;;;16.24;100.00
73240;BME280;61452;40.054;4.110;2024-03-17T14:59:01;102221.25;;;16.25;100.00
73240;BME280;61452;40.054;4.110;2024-03-17T15:04:02;102215.19;;;16.23;100.00
73240;BME280;61452;40.054;4.110;2024-03-17T15:09:04;102208.88;;;16.26;100.00
73240;BME280;61452;40.054;4.110;2024-03-17T15:14:05;102205.22;;;16.28;100.00
73240;BME280;61452;40.054;4.110;2024-03-17T15:19:11;102203.34;;;16.30;100.00
73240;BME280;61452;40.054;4.110;2024-03-17T15:24:12;102204.31;;;16.29;100.00
73240;BME280;61452;40.054;4.110;2024-03-17T15:29:14;102199.00;;;16.29;100.00
73240;BME280;61452;40.054;4.110;2024-03-17T15:34:15;102193.78;;;16.28;100.00
73240;BME280;61452;40.054;4.110;2024-03-17T15:39:16;102187.56;;;16.29;100.00
73240;BME280;61452;40.054;4.110;2024-03-17T15:44:17;102181.47;;;16.27;100.00
73240;BME280;61452;40.054;4.110;2024-03-17T15:49:21;102180.53;;;16.28;100.00
73240;BME280;61452;40.054;4.110;2024-03-17T15:54:23;102177.81;;;16.29;100.00
73240;BME280;61452;40.054;4.110;2024-03-17T15:59:24;102177.91;;;16.28;100.00
73240;BME280;61452;40.054;4.110;2024-03-17T16:04:26;102181.31;;;16.30;100.00
73240;BME280;61452;40.054;4.110;2024-03-17T16:09:27;102177.81;;;16.29;100.00
73240;BME280;61452;40.054;4.110;2024-03-17T16:14:29;102176.78;;;16.32;100.00
73240;BME280;61452;40.054;4.110;2024-03-17T16:19:30;102172.34;;;16.32;100.00
73240;BME280;61452;40.054;4.110;2024-03-17T16:24:34;102164.41;;;16.32;100.00
73240;BME280;61452;40.054;4.110;2024-03-17T16:29:35;102166.19;;;16.32;100.00
73240;BME280;61452;40.054;4.110;2024-03-17T16:34:40;102161.84;;;16.31;100.00
73240;BME280;61452;40.054;4.110;2024-03-17T16:39:42;102156.53;;;16.31;100.00
73240;BME280;61452;40.054;4.110;2024-03-17T16:44:57;102146.81;;;16.31;100.00
73240;BME280;61452;40.054;4.110;2024-03-17T16:50:02;102146.66;;;16.34;100.00
73240;BME280;61452;40.054;4.110;2024-03-17T16:55:09;102143.09;;;16.35;100.00
73240;BME280;61452;40.054;4.110;2024-03-17T17:00:13;102132.50;;;16.35;100.00
73240;BME280;61452;40.054;4.110;2024-03-17T17:05:14;102140.44;;;16.35;100.00
73240;BME280;61452;40.054;4.110;2024-03-17T17:10:15;102129.91;;;16.34;100.00
73240;BME280;61452;40.054;4.110;2024-03-17T17:15:18;102126.50;;;16.32;100.00
73240;BME280;61452;40.054;4.110;2024-03-17T17:20:19;102131.72;;;16.33;100.00
73240;BME280;61452;40.054;4.110;2024-03-17T17:25:20;102133.50;;;16.33;100.00
73240;BME280;61452;40.054;4.110;2024-03-17T17:30:23;102138.78;;;16.33;100.00
73240;BME280;61452;40.054;4.110;2024-03-17T17:35:26;102136.06;;;16.34;100.00
73240;BME280;61452;40.054;4.110;2024-03-17T17:40:28;102155.31;;;16.38;100.00
73240;BME280;61452;40.054;4.110;2024-03-17T17:45:30;102142.91;;;16.38;100.00
73240;BME280;61452;40.054;4.110;2024-03-17T17:50:32;102143.00;;;16.37;100.00
73240;BME280;61452;40.054;4.110;2024-03-17T17:55:33;102136.94;;;16.35;100.00
73240;BME280;61452;40.054;4.110;2024-03-17T18:00:34;102153.69;;;16.35;100.00
73240;BME280;61452;40.054;4.110;2024-03-17T18:05:38;102144.78;;;16.36;100.00
73240;BME280;61452;40.054;4.110;2024-03-17T18:10:41;102157.16;;;16.36;100.00
73240;BME280;61452;40.054;4.110;2024-03-17T18:15:42;102144.78;;;16.36;100.00
73240;BME280;61452;40.054;4.110;2024-03-17T18:20:51;102140.50;;;16.34;100.00
73240;BME280;61452;40.054;4.110;2024-03-17T18:25:52;102134.13;;;16.38;100.00
73240;BME280;61452;40.054;4.110;2024-03-17T18:30:54;102129.84;;;16.35;100.00
73240;BME280;61452;40.054;4.110;2024-03-17T18:35:55;102131.53;;;16.36;100.00
73240;BME280;61452;40.054;4.110;2024-03-17T18:41:07;102143.78;;;16.39;100.00
73240;BME280;61452;40.054;4.110;2024-03-17T18:46:09;102143.78;;;16.39;100.00
73240;BME280;61452;40.054;4.110;2024-03-17T18:51:10;102148.22;;;16.38;100.00
73240;BME280;61452;40.054;4.110;2024-03-17T18:56:12;102149.88;;;16.41;100.00
73240;BME280;61452;40.054;4.110;2024-03-17T19:01:14;102151.56;;;16.42;100.00
73240;BME280;61452;40.054;4.110;2024-03-17T19:06:15;102151.56;;;16.42;100.00
73240;BME280;61452;40.054;4.110;2024-03-17T19:11:19;102159.66;;;16.39;100.00
73240;BME280;61452;40.054;4.110;2024-03-17T19:16:21;102168.41;;;16.41;100.00
73240;BME280;61452;40.054;4.110;2024-03-17T19:21:22;102167.63;;;16.39;100.00
73240;BME280;61452;40.054;4.110;2024-03-17T19:26:24;102180.78;;;16.40;100.00
73240;BME280;61452;40.054;4.110;2024-03-17T19:31:28;102166.69;;;16.40;100.00
73240;BME280;61452;40.054;4.110;2024-03-17T19:36:29;102171.13;;;16.39;100.00
73240;BME280;61452;40.054;4.110;2024-03-17T19:41:30;102161.38;;;16.40;100.00
73240;BME280;61452;40.054;4.110;2024-03-17T19:46:31;102168.41;;;16.41;100.00
73240;BME280;61452;40.054;4.110;2024-03-17T19:51:32;102177.22;;;16.41;100.00
73240;BME280;61452;40.054;4.110;2024-03-17T19:56:33;102167.53;;;16.40;100.00
73240;BME280;61452;40.054;4.110;2024-03-17T20:01:35;102167.53;;;16.40;100.00
73240;BME280;61452;40.054;4.110;2024-03-17T20:06:36;102173.69;;;16.41;100.00
73240;BME280;61452;40.054;4.110;2024-03-17T20:11:38;102184.19;;;16.42;100.00
73240;BME280;61452;40.054;4.110;2024-03-17T20:16:40;102190.34;;;16.43;100.00
73240;BME280;61452;40.054;4.110;2024-03-17T20:21:41;102185.97;;;16.42;100.00
73240;BME280;61452;40.054;4.110;2024-03-17T20:26:42;102182.41;;;16.43;100.00
73240;BME280;61452;40.054;4.110;2024-03-17T20:31:43;102187.69;;;16.43;100.00
73240;BME280;61452;40.054;4.110;2024-03-17T20:36:44;102185.06;;;16.43;100.00
73240;BME280;61452;40.054;4.110;2024-03-17T20:41:45;102190.44;;;16.41;100.00
73240;BME280;61452;40.054;4.110;2024-03-17T20:46:47;102175.50;;;16.40;100.00
73240;BME280;61452;40.054;4.110;2024-03-17T20:51:48;102178.91;;;16.42;100.00
73240;BME280;61452;40.054;4.110;2024-03-17T20:56:49;102183.34;;;16.42;100.00
73240;BME280;61452;40.054;4.110;2024-03-17T21:01:53;102185.97;;;16.42;100.00
73240;BME280;61452;40.054;4.110;2024-03-17T21:06:54;102185.06;;;16.43;100.00
73240;BME280;61452;40.054;4.110;2024-03-17T21:11:55;102190.44;;;16.41;100.00
73240;BME280;61452;40.054;4.110;2024-03-17T21:16:57;102202.81;;;16.41;100.00
73240;BME280;61452;40.054;4.110;2024-03-17T21:21:58;102199.16;;;16.43;100.00
73240;BME280;61452;40.054;4.110;2024-03-17T21:27:00;102191.13;;;16.45;100.00
73240;BME280;61452;40.054;4.110;2024-03-17T21:32:01;102191.13;;;16.45;100.00
73240;BME280;61452;40.054;4.110;2024-03-17T21:37:02;102180.63;;;16.43;100.00
73240;BME280;61452;40.054;4.110;2024-03-17T21:42:03;102179.84;;;16.41;100.00
73240;BME280;61452;40.054;4.110;2024-03-17T21:47:05;102185.97;;;16.42;100.00
73240;BME280;61452;40.054;4.110;2024-03-17T21:52:06;102183.34;;;16.42;100.00
73240;BME280;61452;40.054;4.110;2024-03-17T21:57:07;102185.97;;;16.42;100.00
73240;BME280;61452;40.054;4.110;2024-03-17T22:02:08;102184.97;;;16.44;100.00
73240;BME280;61452;40.054;4.110;2024-03-17T22:07:09;102180.69;;;16.42;100.00
73240;BME280;61452;40.054;4.110;2024-03-17T22:12:11;102182.50;;;16.41;100.00
73240;BME280;61452;40.054;4.110;2024-03-17T22:17:12;102198.28;;;16.43;100.00
73240;BME280;61452;40.054;4.110;2024-03-17T22:22:13;102192.13;;;16.42;100.00
73240;BME280;61452;40.054;4.110;2024-03-17T22:27:15;102196.38;;;16.46;100.00
73240;BME280;61452;40.054;4.110;2024-03-17T22:32:16;102184.91;;;16.46;100.00
73240;BME280;61452;40.054;4.110;2024-03-17T22:37:17;102181.47;;;16.44;100.00
73240;BME280;61452;40.054;4.110;2024-03-17T22:42:18;102177.22;;;16.41;100.00
73240;BME280;61452;40.054;4.110;2024-03-17T22:47:19;102170.03;;;16.43;100.00
73240;BME280;61452;40.054;4.110;2024-03-17T22:52:20;102156.72;;;16.45;100.00
73240;BME280;61452;40.054;4.110;2024-03-17T22:57:21;102158.50;;;16.44;100.00
73240;BME280;61452;40.054;4.110;2024-03-17T23:02:22;102149.75;;;16.42;100.00
73240;BME280;61452;40.054;4.110;2024-03-17T23:07:24;102155.91;;;16.43;100.00
73240;BME280;61452;40.054;4.110;2024-03-17T23:12:26;102166.44;;;16.44;100.00
73240;BME280;61452;40.054;4.110;2024-03-17T23:17:27;102161.94;;;16.46;100.00
73240;BME280;61452;40.054;4.110;2024-03-17T23:22:28;102154.00;;;16.46;100.00
73240;BME280;61452;40.054;4.110;2024-03-17T23:27:29;102154.91;;;16.45;100.00
73240;BME280;61452;40.054;4.110;2024-03-17T23:32:31;102155.00;;;16.44;100.00
73240;BME280;61452;40.054;4.110;2024-03-17T23:37:32;102153.13;;;16.46;100.00
73240;BME280;61452;40.054;4.110;2024-03-17T23:42:33;102134.59;;;16.46;100.00
73240;BME280;61452;40.054;4.110;2024-03-17T23:47:36;102130.16;;;16.46;100.00
73240;BME280;61452;40.054;4.110;2024-03-17T23:52:40;102114.16;;;16.48;100.00
73240;BME280;61452;40.054;4.110;2024-03-17T23:57:41;102119.63;;;16.45;100.00
